createdAt,value
2018-03-14T00:00:09.967Z,99.99
2018-03-14T00:01:09.847Z,99.99
2018-03-14T00:02:10.862Z,99.99
2018-03-14T00:03:32.176Z,99.99
2018-03-14T00:04:32.079Z,99.99
2018-03-14T00:05:32.594Z,99.99
2018-03-14T00:06:32.946Z,99.99
2018-03-14T00:07:31.926Z,99.99
2018-03-14T00:08:32.323Z,99.99
2018-03-14T00:09:32.333Z,99.99
2018-03-14T00:10:54.606Z,99.99
2018-03-14T00:11:54.896Z,99.99
2018-03-14T00:12:55.353Z,99.99
2018-03-14T00:13:54.397Z,99.99
2018-03-14T00:15:15.767Z,99.99
2018-03-14T00:16:16.896Z,99.99
2018-03-14T00:17:59.865Z,99.99
2018-03-14T00:19:00.270Z,99.99
2018-03-14T00:20:00.658Z,99.99
2018-03-14T00:20:59.916Z,99.99
2018-03-14T00:21:59.964Z,99.99
2018-03-14T00:23:22.497Z,99.99
2018-03-14T00:24:22.998Z,99.99
2018-03-14T00:25:23.445Z,99.99
2018-03-14T00:26:22.538Z,99.99
2018-03-14T00:27:44.226Z,99.99
2018-03-14T00:28:45.406Z,99.99
2018-03-14T00:29:44.800Z,99.99
2018-03-14T00:31:07.016Z,99.99
2018-03-14T00:32:07.854Z,99.99
2018-03-14T00:33:08.194Z,99.99
2018-03-14T00:34:07.442Z,99.99
2018-03-14T00:35:07.908Z,99.99
2018-03-14T00:36:08.299Z,99.99
2018-03-14T00:37:07.493Z,99.99
2018-03-14T00:38:07.491Z,99.99
2018-03-14T00:39:07.802Z,99.99
2018-03-14T00:40:08.188Z,99.99
2018-03-14T00:41:07.035Z,99.99
2018-03-14T00:42:07.449Z,99.99
2018-03-14T00:43:07.884Z,99.99
2018-03-14T00:44:07.594Z,99.99
2018-03-14T00:45:07.937Z,99.99
2018-03-14T00:46:07.442Z,99.99
2018-03-14T00:47:07.792Z,99.99
2018-03-14T00:48:29.587Z,99.99
2018-03-14T00:49:30.606Z,99.99
2018-03-14T00:50:30.844Z,99.99
2018-03-14T00:51:30.320Z,99.99
2018-03-14T00:52:30.640Z,99.99
2018-03-14T00:53:31.134Z,99.99
2018-03-14T00:54:29.927Z,99.99
2018-03-14T00:55:29.830Z,99.99
2018-03-14T00:56:29.809Z,99.99
2018-03-14T00:57:51.892Z,99.99
2018-03-14T00:58:53.314Z,99.99
2018-03-14T00:59:52.726Z,99.99
2018-03-14T01:00:53.156Z,99.99
2018-03-14T01:01:52.358Z,99.99
2018-03-14T01:02:52.843Z,99.99
2018-03-14T01:03:53.078Z,99.99
2018-03-14T01:04:52.484Z,99.99
2018-03-14T01:05:52.423Z,99.99
2018-03-14T01:06:52.472Z,99.99
2018-03-14T01:07:52.636Z,99.99
2018-03-14T01:08:53.018Z,99.99
2018-03-14T01:09:52.481Z,99.99
2018-03-14T01:10:52.827Z,99.99
2018-03-14T01:11:53.123Z,99.99
2018-03-14T01:13:37.277Z,99.99
2018-03-14T01:14:38.167Z,99.99
2018-03-14T01:15:38.623Z,99.99
2018-03-14T01:16:38.144Z,99.99
2018-03-14T01:18:00.804Z,99.99
2018-03-14T01:19:01.144Z,99.99
2018-03-14T01:20:01.077Z,99.99
2018-03-14T01:21:01.577Z,99.99
2018-03-14T01:22:00.826Z,99.99
2018-03-14T01:23:00.993Z,99.99
2018-03-14T01:24:00.799Z,99.99
2018-03-14T01:25:01.648Z,99.99
2018-03-14T01:26:01.229Z,99.99
2018-03-14T01:27:01.621Z,99.99
2018-03-14T01:28:00.825Z,99.99
2018-03-14T01:29:01.347Z,99.99
2018-03-14T01:30:01.731Z,99.99
2018-03-14T01:31:00.948Z,99.99
2018-03-14T01:32:01.471Z,99.99
2018-03-14T01:33:00.959Z,99.99
2018-03-14T01:34:01.308Z,99.99
2018-03-14T01:35:01.764Z,99.99
2018-03-14T01:36:22.349Z,99.99
2018-03-14T01:37:22.649Z,99.99
2018-03-14T01:38:22.883Z,99.99
2018-03-14T01:39:23.009Z,99.99
2018-03-14T01:40:23.159Z,99.99
2018-03-14T01:41:23.388Z,99.99
2018-03-14T01:42:22.112Z,99.99
2018-03-14T01:43:23.481Z,99.99
2018-03-14T01:44:22.663Z,99.99
2018-03-14T01:45:23.074Z,99.99
2018-03-14T01:46:44.425Z,99.99
2018-03-14T01:47:45.022Z,99.99
2018-03-14T01:48:44.859Z,99.99
2018-03-14T01:49:44.430Z,99.99
2018-03-14T01:51:06.137Z,99.99
2018-03-14T01:52:07.476Z,99.99
2018-03-14T01:53:06.813Z,99.99
2018-03-14T01:54:07.490Z,99.99
2018-03-14T01:55:06.742Z,99.99
2018-03-14T01:56:06.650Z,99.99
2018-03-14T01:57:06.810Z,99.99
2018-03-14T01:58:07.342Z,99.99
2018-03-14T01:59:07.088Z,99.99
2018-03-14T02:00:07.398Z,99.99
2018-03-14T02:01:06.219Z,99.99
2018-03-14T02:02:07.076Z,99.99
2018-03-14T02:03:07.458Z,99.99
2018-03-14T02:04:07.027Z,99.99
2018-03-14T02:05:07.293Z,99.99
2018-03-14T02:06:06.545Z,99.99
2018-03-14T02:07:06.927Z,99.99
2018-03-14T02:08:07.120Z,99.99
2018-03-14T02:09:07.614Z,99.99
2018-03-14T02:10:27.922Z,99.99
2018-03-14T02:11:51.366Z,99.99
2018-03-14T02:12:51.579Z,99.99
2018-03-14T02:13:52.001Z,99.99
2018-03-14T02:14:52.325Z,99.99
2018-03-14T02:15:51.806Z,99.99
2018-03-14T02:16:51.715Z,99.99
2018-03-14T02:17:51.393Z,99.99
2018-03-14T02:18:51.217Z,99.99
2018-03-14T02:19:51.554Z,99.99
2018-03-14T02:20:51.821Z,99.99
2018-03-14T02:21:51.543Z,99.99
2018-03-14T02:22:51.995Z,99.99
2018-03-14T02:23:51.604Z,99.99
2018-03-14T02:24:51.647Z,99.99
2018-03-14T02:25:51.760Z,99.99
2018-03-14T02:26:52.212Z,99.99
2018-03-14T02:27:51.301Z,99.99
2018-03-14T02:28:51.030Z,99.99
2018-03-14T02:29:50.983Z,99.99
2018-03-14T02:30:50.915Z,99.99
2018-03-14T02:31:52.241Z,99.99
2018-03-14T02:32:52.271Z,99.99
2018-03-14T02:33:50.944Z,99.99
2018-03-14T02:34:51.514Z,99.99
2018-03-14T02:35:51.748Z,99.99
2018-03-14T02:36:51.534Z,99.99
2018-03-14T02:37:51.975Z,99.99
2018-03-14T02:38:50.717Z,99.99
2018-03-14T02:39:51.537Z,99.99
2018-03-14T02:40:51.468Z,99.99
2018-03-14T02:41:51.788Z,99.99
2018-03-14T02:42:52.128Z,99.99
2018-03-14T02:43:51.758Z,99.99
2018-03-14T02:44:52.054Z,99.99
2018-03-14T02:45:50.937Z,99.99
2018-03-14T02:46:52.009Z,99.99
2018-03-14T02:47:51.530Z,99.99
2018-03-14T02:48:51.384Z,99.99
2018-03-14T02:50:14.028Z,99.99
2018-03-14T02:51:14.496Z,99.99
2018-03-14T02:52:14.676Z,99.99
2018-03-14T02:53:36.107Z,99.99
2018-03-14T02:54:35.855Z,99.99
2018-03-14T02:55:37.226Z,99.99
2018-03-14T02:56:36.628Z,99.99
2018-03-14T02:57:37.041Z,99.99
2018-03-14T02:58:58.063Z,99.99
2018-03-14T02:59:57.853Z,99.99
2018-03-14T03:00:58.175Z,99.99
2018-03-14T03:01:57.973Z,99.99
2018-03-14T03:02:58.367Z,99.99
2018-03-14T03:03:58.735Z,99.99
2018-03-14T03:04:58.058Z,99.99
2018-03-14T03:06:20.376Z,99.99
2018-03-14T03:07:20.656Z,99.99
2018-03-14T03:08:21.012Z,99.99
2018-03-14T03:09:21.278Z,99.99
2018-03-14T03:10:20.901Z,99.99
2018-03-14T03:11:21.381Z,99.99
2018-03-14T03:12:19.918Z,99.99
2018-03-14T03:13:21.287Z,99.99
2018-03-14T03:14:20.552Z,99.99
2018-03-14T03:15:20.943Z,99.99
2018-03-14T03:16:20.460Z,99.99
2018-03-14T03:17:20.471Z,99.99
2018-03-14T03:18:21.259Z,99.99
2018-03-14T03:19:20.328Z,99.99
2018-03-14T03:20:20.021Z,99.99
2018-03-14T03:21:21.808Z,99.99
2018-03-14T03:22:21.214Z,99.99
2018-03-14T03:23:20.068Z,99.99
2018-03-14T03:24:21.180Z,99.99
2018-03-14T03:25:19.815Z,99.99
2018-03-14T03:26:21.214Z,99.99
2018-03-14T03:27:20.490Z,99.99
2018-03-14T03:28:20.376Z,99.99
2018-03-14T03:29:20.708Z,99.99
2018-03-14T03:30:20.942Z,99.99
2018-03-14T03:31:21.218Z,99.99
2018-03-14T03:32:19.835Z,99.99
2018-03-14T03:33:21.324Z,99.99
2018-03-14T03:34:20.135Z,99.99
2018-03-14T03:35:19.863Z,99.99
2018-03-14T03:36:21.441Z,99.99
2018-03-14T03:38:06.195Z,99.99
2018-03-14T03:39:28.087Z,99.99
2018-03-14T03:40:27.919Z,99.99
2018-03-14T03:41:28.530Z,99.99
2018-03-14T03:42:28.803Z,99.99
2018-03-14T03:43:29.204Z,99.99
2018-03-14T03:44:27.960Z,99.99
2018-03-14T03:45:27.532Z,99.99
2018-03-14T03:46:28.902Z,99.99
2018-03-14T03:47:27.780Z,99.99
2018-03-14T03:48:28.913Z,99.99
2018-03-14T03:49:27.612Z,99.99
2018-03-14T03:50:28.588Z,99.99
2018-03-14T03:51:28.173Z,99.99
2018-03-14T03:52:27.950Z,99.99
2018-03-14T03:53:28.082Z,99.99
2018-03-14T03:54:28.696Z,99.99
2018-03-14T03:55:28.508Z,99.99
2018-03-14T03:56:28.831Z,99.99
2018-03-14T03:57:27.742Z,99.99
2018-03-14T03:58:28.879Z,99.99
2018-03-14T03:59:51.130Z,99.99
2018-03-14T04:00:51.441Z,99.99
2018-03-14T04:01:51.294Z,99.99
2018-03-14T04:02:51.590Z,99.99
2018-03-14T04:03:51.977Z,99.99
2018-03-14T04:04:51.440Z,99.99
2018-03-14T04:05:51.867Z,99.99
2018-03-14T04:06:51.171Z,99.99
2018-03-14T04:07:50.960Z,99.99
2018-03-14T04:08:51.473Z,99.99
2018-03-14T04:09:51.777Z,99.99
2018-03-14T04:10:51.394Z,99.99
2018-03-14T04:11:51.815Z,99.99
2018-03-14T04:12:51.613Z,99.99
2018-03-14T04:14:14.159Z,99.99
2018-03-14T04:15:14.441Z,99.99
2018-03-14T04:16:14.384Z,99.99
2018-03-14T04:17:14.470Z,99.99
2018-03-14T04:18:37.193Z,99.99
2018-03-14T04:19:37.426Z,99.99
2018-03-14T04:20:37.721Z,99.99
2018-03-14T04:21:59.447Z,99.99
2018-03-14T04:23:00.589Z,99.99
2018-03-14T04:24:00.901Z,99.99
2018-03-14T04:25:00.490Z,99.99
2018-03-14T04:26:00.494Z,99.99
2018-03-14T04:27:00.981Z,99.99
2018-03-14T04:28:00.428Z,99.99
2018-03-14T04:29:00.882Z,99.99
2018-03-14T04:30:00.234Z,99.99
2018-03-14T04:31:00.599Z,99.99
2018-03-14T04:32:01.037Z,99.99
2018-03-14T04:33:00.348Z,99.99
2018-03-14T04:34:00.269Z,99.99
2018-03-14T04:35:00.547Z,99.99
2018-03-14T04:36:00.677Z,99.99
2018-03-14T04:37:00.953Z,99.99
2018-03-14T04:38:00.397Z,99.99
2018-03-14T04:39:00.836Z,99.99
2018-03-14T04:40:00.157Z,99.99
2018-03-14T04:41:00.296Z,99.99
2018-03-14T04:42:00.745Z,99.99
2018-03-14T04:42:59.603Z,99.99
2018-03-14T04:44:00.945Z,99.99
2018-03-14T04:45:00.354Z,99.99
2018-03-14T04:46:00.677Z,99.99
2018-03-14T04:47:23.319Z,99.99
2018-03-14T04:48:23.537Z,99.99
2018-03-14T04:49:23.788Z,99.99
2018-03-14T04:50:23.251Z,99.99
2018-03-14T04:51:22.948Z,99.99
2018-03-14T04:52:23.221Z,99.99
2018-03-14T04:53:44.969Z,99.99
2018-03-14T04:54:46.438Z,99.99
2018-03-14T04:55:45.066Z,99.99
2018-03-14T04:56:46.455Z,99.99
2018-03-14T04:58:07.993Z,99.99
2018-03-14T04:59:08.482Z,99.99
2018-03-14T05:00:29.982Z,99.99
2018-03-14T05:01:30.209Z,99.99
2018-03-14T05:02:54.057Z,99.99
2018-03-14T05:03:53.181Z,99.99
2018-03-14T05:04:53.524Z,99.99
2018-03-14T05:05:53.899Z,99.99
2018-03-14T05:06:52.847Z,99.99
2018-03-14T05:07:53.341Z,99.99
2018-03-14T05:08:53.735Z,99.99
2018-03-14T05:09:52.655Z,99.99
2018-03-14T05:10:52.620Z,99.99
2018-03-14T05:11:53.145Z,99.99
2018-03-14T05:12:53.475Z,99.99
2018-03-14T05:13:53.188Z,99.99
2018-03-14T05:14:53.465Z,99.99
2018-03-14T05:15:54.005Z,99.99
2018-03-14T05:16:52.883Z,99.99
2018-03-14T05:17:52.952Z,99.99
2018-03-14T05:18:52.792Z,99.99
2018-03-14T05:19:52.578Z,99.99
2018-03-14T05:20:53.127Z,99.99
2018-03-14T05:21:53.655Z,99.99
2018-03-14T05:22:53.144Z,99.99
2018-03-14T05:23:53.528Z,99.99
2018-03-14T05:25:15.229Z,99.99
2018-03-14T05:26:15.076Z,99.99
2018-03-14T05:27:37.030Z,99.99
2018-03-14T05:28:37.574Z,99.99
2018-03-14T05:29:38.302Z,99.99
2018-03-14T05:30:37.857Z,99.99
2018-03-14T05:31:37.797Z,99.99
2018-03-14T05:32:36.604Z,99.99
2018-03-14T05:33:36.464Z,99.99
2018-03-14T05:34:38.112Z,99.99
2018-03-14T05:35:37.279Z,99.99
2018-03-14T05:36:37.644Z,99.99
2018-03-14T05:37:37.200Z,99.99
2018-03-14T05:38:37.415Z,99.99
2018-03-14T05:39:37.261Z,99.99
2018-03-14T05:40:37.838Z,99.99
2018-03-14T05:41:37.270Z,99.99
2018-03-14T05:42:37.872Z,99.99
2018-03-14T05:43:37.163Z,99.99
2018-03-14T05:44:37.291Z,99.99
2018-03-14T05:45:37.171Z,99.99
2018-03-14T05:46:37.184Z,99.99
2018-03-14T05:47:38.093Z,99.99
2018-03-14T05:48:39.119Z,99.99
2018-03-14T05:49:37.436Z,99.99
2018-03-14T05:50:59.712Z,99.99
2018-03-14T05:51:59.585Z,99.99
2018-03-14T05:53:00.130Z,99.99
2018-03-14T05:54:00.893Z,99.99
2018-03-14T05:55:00.151Z,99.99
2018-03-14T05:56:00.450Z,99.99
2018-03-14T05:57:00.977Z,99.99
2018-03-14T05:58:00.715Z,99.99
2018-03-14T05:59:00.218Z,99.99
2018-03-14T06:00:00.816Z,99.99
2018-03-14T06:01:00.293Z,99.99
2018-03-14T06:02:00.779Z,99.99
2018-03-14T06:03:00.143Z,99.99
2018-03-14T06:04:00.653Z,99.99
2018-03-14T06:04:59.818Z,99.99
2018-03-14T06:06:00.296Z,99.99
2018-03-14T06:07:00.809Z,99.99
2018-03-14T06:07:59.604Z,99.99
2018-03-14T06:09:00.174Z,99.99
2018-03-14T06:10:00.069Z,99.99
2018-03-14T06:11:00.345Z,99.99
2018-03-14T06:11:59.927Z,99.99
2018-03-14T06:13:00.555Z,99.99
2018-03-14T06:13:59.982Z,99.99
2018-03-14T06:15:00.096Z,99.99
2018-03-14T06:16:00.866Z,99.99
2018-03-14T06:16:59.726Z,99.99
2018-03-14T06:18:00.338Z,99.99
2018-03-14T06:18:59.951Z,99.99
2018-03-14T06:20:00.627Z,99.99
2018-03-14T06:20:59.716Z,99.99
2018-03-14T06:22:00.372Z,99.99
2018-03-14T06:23:01.023Z,99.99
2018-03-14T06:24:00.563Z,99.99
2018-03-14T06:25:00.222Z,99.99
2018-03-14T06:26:00.919Z,99.99
2018-03-14T06:26:59.985Z,99.99
2018-03-14T06:27:59.895Z,99.99
2018-03-14T06:29:21.914Z,99.99
2018-03-14T06:30:22.763Z,99.99
2018-03-14T06:31:22.616Z,99.99
2018-03-14T06:32:23.196Z,99.99
2018-03-14T06:33:22.666Z,99.99
2018-03-14T06:34:23.277Z,99.99
2018-03-14T06:35:22.836Z,99.99
2018-03-14T06:36:23.170Z,99.99
2018-03-14T06:37:22.886Z,99.99
2018-03-14T06:38:22.491Z,99.99
2018-03-14T06:40:08.681Z,99.99
2018-03-14T06:41:30.128Z,99.99
2018-03-14T06:42:31.838Z,99.99
2018-03-14T06:43:31.562Z,99.99
2018-03-14T06:44:30.946Z,99.99
2018-03-14T06:45:30.957Z,99.99
2018-03-14T06:46:31.364Z,99.99
2018-03-14T06:48:44.066Z,99.99
2018-03-14T06:49:43.408Z,99.99
2018-03-14T06:50:43.927Z,99.99
2018-03-14T06:51:43.393Z,99.99
2018-03-14T06:52:43.958Z,99.99
2018-03-14T06:53:43.667Z,99.99
2018-03-14T06:54:44.129Z,99.99
2018-03-14T06:55:43.140Z,99.99
2018-03-14T06:56:43.054Z,99.99
2018-03-14T06:57:43.558Z,99.99
2018-03-14T06:58:44.534Z,99.99
2018-03-14T06:59:43.549Z,99.99
2018-03-14T07:00:44.264Z,99.99
2018-03-14T07:01:43.766Z,99.99
2018-03-14T07:03:05.680Z,99.99
2018-03-14T07:04:06.408Z,99.99
2018-03-14T07:05:05.833Z,99.99
2018-03-14T07:06:06.886Z,99.99
2018-03-14T07:07:06.499Z,99.99
2018-03-14T07:08:05.716Z,99.99
2018-03-14T07:09:06.173Z,99.99
2018-03-14T07:10:05.999Z,99.99
2018-03-14T07:11:05.785Z,99.99
2018-03-14T07:12:06.792Z,99.99
2018-03-14T07:13:06.343Z,99.99
2018-03-14T07:14:05.893Z,99.99
2018-03-14T07:15:08.063Z,99.99
2018-03-14T07:16:06.653Z,99.99
2018-03-14T07:17:06.388Z,99.99
2018-03-14T07:18:05.698Z,99.99
2018-03-14T07:19:06.041Z,99.99
2018-03-14T07:20:06.691Z,99.99
2018-03-14T07:21:05.758Z,99.99
2018-03-14T07:22:06.088Z,99.99
2018-03-14T07:23:06.316Z,99.99
2018-03-14T07:24:05.930Z,99.99
2018-03-14T07:25:06.407Z,99.99
2018-03-14T07:26:05.979Z,99.99
2018-03-14T07:27:06.444Z,99.99
2018-03-14T07:28:06.163Z,99.99
2018-03-14T07:29:06.324Z,99.99
2018-03-14T07:30:05.278Z,99.99
2018-03-14T07:31:06.408Z,99.99
2018-03-14T07:32:05.942Z,99.99
2018-03-14T07:33:06.503Z,99.99
2018-03-14T07:34:06.282Z,99.99
2018-03-14T07:35:06.466Z,99.99
2018-03-14T07:36:06.154Z,99.99
2018-03-14T07:37:06.585Z,99.99
2018-03-14T07:38:05.478Z,99.99
2018-03-14T07:39:05.586Z,99.99
2018-03-14T07:40:05.609Z,99.99
2018-03-14T07:41:06.726Z,99.99
2018-03-14T07:42:28.215Z,99.99
2018-03-14T07:43:28.773Z,99.99
2018-03-14T07:44:29.221Z,99.99
2018-03-14T07:45:28.832Z,99.99
2018-03-14T07:46:28.461Z,99.99
2018-03-14T07:47:28.654Z,99.99
2018-03-14T07:48:28.095Z,99.99
2018-03-14T07:49:28.579Z,99.99
2018-03-14T07:50:28.522Z,99.99
2018-03-14T07:51:29.611Z,99.99
2018-03-14T07:52:28.556Z,99.99
2018-03-14T07:53:29.196Z,99.99
2018-03-14T07:54:28.733Z,99.99
2018-03-14T07:55:28.315Z,99.99
2018-03-14T07:56:28.728Z,99.99
2018-03-14T07:57:49.827Z,99.99
2018-03-14T07:59:12.337Z,99.99
2018-03-14T08:00:35.896Z,99.99
2018-03-14T08:01:36.940Z,99.99
2018-03-14T08:02:36.601Z,99.99
2018-03-14T08:03:36.119Z,99.99
2018-03-14T08:04:36.645Z,99.99
2018-03-14T08:05:36.162Z,99.99
2018-03-14T08:06:36.103Z,99.99
2018-03-14T08:07:36.586Z,99.99
2018-03-14T08:08:35.866Z,99.99
2018-03-14T08:09:35.943Z,99.99
2018-03-14T08:10:35.737Z,99.99
2018-03-14T08:11:36.308Z,99.99
2018-03-14T08:12:36.094Z,99.99
2018-03-14T08:13:58.969Z,99.99
2018-03-14T08:14:59.683Z,99.99
2018-03-14T08:15:59.044Z,99.99
2018-03-14T08:16:59.214Z,99.99
2018-03-14T08:17:59.672Z,99.99
2018-03-14T08:18:59.785Z,99.99
2018-03-14T08:19:58.871Z,99.99
2018-03-14T08:20:59.446Z,99.99
2018-03-14T08:21:58.888Z,99.99
2018-03-14T08:23:21.372Z,99.99
2018-03-14T08:24:23.216Z,99.99
2018-03-14T08:25:22.248Z,99.99
2018-03-14T08:26:22.316Z,99.99
2018-03-14T08:27:22.914Z,99.99
2018-03-14T08:28:22.327Z,99.99
2018-03-14T08:29:22.859Z,99.99
2018-03-14T08:30:22.376Z,99.99
2018-03-14T08:31:22.835Z,99.99
2018-03-14T08:33:06.458Z,99.99
2018-03-14T08:34:06.913Z,99.99
2018-03-14T08:35:07.637Z,99.99
2018-03-14T08:36:06.585Z,99.99
2018-03-14T08:37:06.617Z,99.99
2018-03-14T08:38:07.002Z,99.99
2018-03-14T08:39:07.013Z,99.99
2018-03-14T08:40:07.442Z,99.99
2018-03-14T08:41:07.344Z,99.99
2018-03-14T08:42:06.420Z,99.99
2018-03-14T08:43:28.124Z,99.99
2018-03-14T08:44:31.654Z,99.99
2018-03-14T08:45:29.130Z,99.99
2018-03-14T08:46:28.667Z,99.99
2018-03-14T08:47:29.282Z,99.99
2018-03-14T08:48:29.154Z,99.99
2018-03-14T08:49:28.723Z,99.99
2018-03-14T08:50:29.382Z,99.99
2018-03-14T08:51:29.003Z,99.99
2018-03-14T08:52:51.231Z,99.99
2018-03-14T08:53:52.527Z,99.99
2018-03-14T08:55:14.447Z,99.99
2018-03-14T08:56:15.093Z,99.99
2018-03-14T08:57:14.092Z,99.99
2018-03-14T08:58:14.752Z,99.99
2018-03-14T08:59:36.059Z,99.99
2018-03-14T09:00:36.613Z,99.99
2018-03-14T09:01:36.070Z,99.99
2018-03-14T09:02:36.743Z,99.99
2018-03-14T09:03:36.443Z,99.99
2018-03-14T09:04:37.224Z,99.99
2018-03-14T09:05:36.479Z,99.99
2018-03-14T09:06:36.138Z,99.99
2018-03-14T09:07:36.554Z,99.99
2018-03-14T09:08:35.845Z,99.99
2018-03-14T09:09:35.796Z,99.99
2018-03-14T09:10:36.227Z,99.99
2018-03-14T09:11:36.816Z,99.99
2018-03-14T09:12:36.305Z,99.99
2018-03-14T09:13:36.961Z,99.99
2018-03-14T09:14:40.646Z,99.99
2018-03-14T09:15:57.947Z,99.99
2018-03-14T09:16:58.056Z,99.99
2018-03-14T09:17:59.109Z,99.99
2018-03-14T09:18:58.725Z,99.99
2018-03-14T09:19:58.138Z,99.99
2018-03-14T09:20:58.104Z,99.99
2018-03-14T09:21:57.976Z,99.99
2018-03-14T09:22:58.284Z,99.99
2018-03-14T09:23:57.863Z,99.99
2018-03-14T09:24:57.962Z,99.99
2018-03-14T09:25:58.488Z,99.99
2018-03-14T09:26:57.798Z,99.99
2018-03-14T09:27:58.070Z,99.99
2018-03-14T09:28:58.664Z,99.99
2018-03-14T09:29:58.127Z,99.99
2018-03-14T09:31:21.049Z,99.99
2018-03-14T09:32:21.584Z,99.99
2018-03-14T09:33:21.055Z,99.99
2018-03-14T09:34:43.134Z,99.99
2018-03-14T09:35:43.756Z,99.99
2018-03-14T09:36:44.426Z,99.99
2018-03-14T09:37:43.393Z,99.99
2018-03-14T09:38:43.698Z,99.99
2018-03-14T09:39:43.953Z,99.99
2018-03-14T09:40:44.806Z,99.99
2018-03-14T09:41:43.882Z,99.99
2018-03-14T09:42:43.575Z,99.99
2018-03-14T09:43:44.437Z,99.99
2018-03-14T09:44:43.581Z,99.99
2018-03-14T09:45:21.621Z,99.99
2018-03-14T09:46:21.690Z,99.99
2018-03-14T09:47:22.238Z,99.99
2018-03-14T09:48:21.845Z,99.99
2018-03-14T09:49:23.015Z,99.99
2018-03-14T09:50:25.207Z,99.99
2018-03-14T09:51:23.787Z,99.99
2018-03-14T09:52:22.348Z,99.99
2018-03-14T09:53:21.939Z,99.99
2018-03-14T09:54:44.087Z,99.99
2018-03-14T09:55:45.483Z,99.99
2018-03-14T09:56:44.966Z,99.99
2018-03-14T09:57:44.736Z,99.99
2018-03-14T09:59:06.612Z,99.99
2018-03-14T10:00:07.091Z,99.99
2018-03-14T10:01:07.071Z,99.99
2018-03-14T10:02:07.373Z,99.99
2018-03-14T10:03:06.935Z,99.99
2018-03-14T10:04:07.035Z,99.99
2018-03-14T10:05:07.884Z,99.99
2018-03-14T10:06:07.590Z,99.99
2018-03-14T10:07:06.635Z,99.99
2018-03-14T10:08:07.256Z,99.99
2018-03-14T10:09:07.085Z,99.99
2018-03-14T10:10:07.714Z,99.99
2018-03-14T10:11:07.636Z,99.99
2018-03-14T10:12:07.358Z,99.99
2018-03-14T10:13:06.312Z,99.99
2018-03-14T10:14:07.081Z,99.99
2018-03-14T10:15:07.543Z,99.99
2018-03-14T10:16:07.275Z,99.99
2018-03-14T10:17:07.490Z,99.99
2018-03-14T10:18:06.981Z,99.99
2018-03-14T10:19:06.957Z,99.99
2018-03-14T10:20:07.502Z,99.99
2018-03-14T10:21:07.214Z,99.99
2018-03-14T10:22:06.690Z,99.99
2018-03-14T10:23:07.209Z,99.99
2018-03-14T10:24:06.247Z,99.99
2018-03-14T10:25:06.588Z,99.99
2018-03-14T10:26:07.190Z,99.99
2018-03-14T10:27:06.796Z,99.99
2018-03-14T10:28:06.855Z,99.99
2018-03-14T10:29:06.748Z,99.99
2018-03-14T10:30:07.336Z,99.99
2018-03-14T10:31:06.518Z,99.99
2018-03-14T10:32:06.531Z,99.99
2018-03-14T10:33:07.167Z,99.99
2018-03-14T10:34:08.219Z,99.99
2018-03-14T10:35:07.372Z,99.99
2018-03-14T10:36:10.044Z,99.99
2018-03-14T10:37:12.086Z,99.99
2018-03-14T10:38:07.093Z,99.99
2018-03-14T10:39:07.084Z,99.99
2018-03-14T10:40:29.726Z,99.99
2018-03-14T10:41:29.681Z,99.99
2018-03-14T10:42:31.881Z,99.99
2018-03-14T10:43:30.063Z,99.99
2018-03-14T10:44:29.885Z,99.99
2018-03-14T10:46:15.089Z,99.99
2018-03-14T10:47:14.738Z,99.99
2018-03-14T10:48:15.187Z,99.99
2018-03-14T10:49:37.031Z,99.99
2018-03-14T10:50:38.088Z,99.99
2018-03-14T10:51:38.274Z,99.99
2018-03-14T10:52:37.814Z,99.99
2018-03-14T10:53:59.285Z,99.99
2018-03-14T10:55:00.206Z,99.99
2018-03-14T10:56:00.238Z,99.99
2018-03-14T10:57:00.665Z,99.99
2018-03-14T10:58:00.362Z,99.99
2018-03-14T10:58:59.275Z,99.99
2018-03-14T11:00:00.796Z,99.99
2018-03-14T11:00:59.584Z,99.99
2018-03-14T11:02:00.039Z,99.99
2018-03-14T11:02:59.982Z,99.99
2018-03-14T11:04:00.408Z,99.99
2018-03-14T11:04:59.791Z,99.99
2018-03-14T11:06:06.054Z,99.99
2018-03-14T11:07:03.114Z,99.99
2018-03-14T11:08:00.950Z,99.99
2018-03-14T11:09:01.222Z,99.99
2018-03-14T11:09:59.450Z,99.99
2018-03-14T11:11:00.109Z,99.99
2018-03-14T11:12:00.725Z,99.99
2018-03-14T11:12:59.778Z,99.99
2018-03-14T11:14:22.143Z,99.99
2018-03-14T11:15:22.843Z,99.99
2018-03-14T11:16:23.800Z,99.99
2018-03-14T11:17:23.154Z,99.99
2018-03-14T11:18:22.595Z,99.99
2018-03-14T11:19:23.175Z,99.99
2018-03-14T11:20:22.332Z,99.99
2018-03-14T11:21:22.939Z,99.99
2018-03-14T11:22:22.681Z,99.99
2018-03-14T11:23:23.364Z,99.16
2018-03-14T11:24:45.115Z,99.99
2018-03-14T11:25:45.371Z,99.74
2018-03-14T11:26:45.926Z,99.07
2018-03-14T11:27:45.549Z,99.02
2018-03-14T11:28:45.146Z,99.69
2018-03-14T11:29:45.887Z,99.22
2018-03-14T11:31:07.417Z,97.93
2018-03-14T11:32:07.988Z,96.89
2018-03-14T11:33:08.502Z,95.84
2018-03-14T11:34:08.026Z,95.84
2018-03-14T11:35:07.530Z,96.12
2018-03-14T11:36:07.741Z,96.79
2018-03-14T11:37:08.244Z,97.08
2018-03-14T11:38:07.875Z,97.27
2018-03-14T11:39:08.790Z,95.84
2018-03-14T11:40:08.224Z,94.79
2018-03-14T11:41:08.494Z,94.98
2018-03-14T11:42:08.002Z,95.65
2018-03-14T11:43:08.453Z,95.17
2018-03-14T11:44:07.885Z,94.89
2018-03-14T11:45:31.316Z,91.94
2018-03-14T11:46:30.795Z,92.99
2018-03-14T11:47:31.621Z,93.08
2018-03-14T11:48:31.066Z,93.37
2018-03-14T11:49:31.556Z,92.70
2018-03-14T11:50:31.124Z,92.79
2018-03-14T11:51:30.668Z,93.55
2018-03-14T11:52:31.277Z,93.74
2018-03-14T11:53:30.250Z,94.13
2018-03-14T11:54:30.635Z,91.37
2018-03-14T11:55:31.209Z,90.89
2018-03-14T11:56:30.822Z,92.41
2018-03-14T11:57:32.909Z,92.60
2018-03-14T11:58:31.390Z,91.61
2018-03-14T11:59:30.562Z,92.79
2018-03-14T12:00:31.420Z,94.70
2018-03-14T12:01:31.354Z,94.51
2018-03-14T12:02:30.848Z,91.84
2018-03-14T12:03:31.240Z,92.79
2018-03-14T12:04:30.834Z,92.79
2018-03-14T12:05:31.347Z,90.22
2018-03-14T12:06:30.472Z,90.13
2018-03-14T12:07:31.033Z,90.80
2018-03-14T12:08:30.671Z,92.13
2018-03-14T12:09:31.212Z,92.32
2018-03-14T12:10:31.457Z,91.84
2018-03-14T12:11:53.010Z,90.80
2018-03-14T12:12:53.522Z,92.70
2018-03-14T12:13:53.178Z,92.79
2018-03-14T12:14:53.623Z,93.18
2018-03-14T12:15:53.675Z,92.89
2018-03-14T12:16:52.930Z,91.37
2018-03-14T12:17:53.184Z,90.89
2018-03-14T12:18:53.671Z,89.18
2018-03-14T12:19:53.233Z,89.37
2018-03-14T12:20:53.503Z,91.08
2018-03-14T12:21:53.116Z,92.60
2018-03-14T12:22:53.884Z,93.94
2018-03-14T12:23:53.662Z,93.65
2018-03-14T12:24:53.157Z,90.51
2018-03-14T12:25:53.638Z,91.56
2018-03-14T12:26:53.671Z,92.03
2018-03-14T12:27:53.392Z,91.46
2018-03-14T12:28:52.984Z,92.18
2018-03-14T12:30:16.013Z,92.51
2018-03-14T12:31:16.705Z,92.79
2018-03-14T12:32:21.474Z,92.32
2018-03-14T12:33:16.680Z,91.65
2018-03-14T12:34:16.038Z,92.13
2018-03-14T12:35:16.749Z,92.51
2018-03-14T12:36:23.075Z,92.60
2018-03-14T12:37:39.816Z,89.94
2018-03-14T12:38:40.470Z,90.80
2018-03-14T12:39:41.703Z,90.03
2018-03-14T12:41:03.023Z,89.42
2018-03-14T12:42:03.721Z,88.46
2018-03-14T12:43:03.269Z,89.32
2018-03-14T12:44:03.175Z,90.56
2018-03-14T12:45:02.712Z,92.18
2018-03-14T12:46:03.460Z,93.32
2018-03-14T12:47:02.972Z,92.46
2018-03-14T12:48:03.492Z,90.37
2018-03-14T12:49:03.173Z,89.32
2018-03-14T12:50:02.824Z,88.13
2018-03-14T12:51:03.199Z,88.23
2018-03-14T12:52:02.493Z,89.09
2018-03-14T12:53:03.153Z,88.90
2018-03-14T12:54:03.239Z,90.42
2018-03-14T12:55:02.841Z,89.75
2018-03-14T12:56:03.726Z,89.94
2018-03-14T12:57:03.751Z,89.80
2018-03-14T12:58:03.080Z,89.04
2018-03-14T12:59:04.414Z,88.18
2018-03-14T13:00:02.713Z,88.75
2018-03-14T13:01:03.501Z,88.75
2018-03-14T13:02:03.160Z,87.80
2018-03-14T13:03:02.395Z,87.52
2018-03-14T13:04:04.253Z,87.13
2018-03-14T13:05:02.832Z,86.57
2018-03-14T13:06:03.546Z,86.76
2018-03-14T13:07:03.544Z,86.94
2018-03-14T13:08:03.309Z,87.99
2018-03-14T13:09:03.098Z,87.80
2018-03-14T13:10:03.444Z,87.23
2018-03-14T13:11:03.732Z,86.18
2018-03-14T13:12:03.400Z,85.42
2018-03-14T13:13:06.247Z,87.61
2018-03-14T13:14:03.003Z,87.61
2018-03-14T13:15:02.747Z,85.90
2018-03-14T13:16:05.790Z,86.18
2018-03-14T13:17:03.530Z,84.85
2018-03-14T13:18:04.106Z,84.85
2018-03-14T13:19:02.737Z,85.85
2018-03-14T13:20:03.135Z,85.42